Time;durP1;ratioP1;P1;durP2;ratioP2;P2;SDS_P1;SDS_P2;PMS_P1;PMS_P2;Temp;Humidity;BMP_temperature;BMP_pressure;BME280_temperature;BME280_humidity;BME280_pressure;Samples;Min_cycle;Max_cycle;Signal;HPM_P1;HPM_P2
2023/04/09 00:01:08;;;;;;;100.97;51.15;;;8.40;99.90;;;;;;5124655;27;20039;-71
2023/04/09 00:03:35;;;;;;;94.00;53.08;;;8.50;99.90;;;;;;5117947;27;20062;-70
2023/04/09 00:06:01;;;;;;;96.97;55.67;;;8.40;99.90;;;;;;5127147;27;20043;-69
2023/04/09 00:08:26;;;;;;;94.30;52.20;;;8.40;99.90;;;;;;5115941;27;20046;-69
2023/04/09 00:10:54;;;;;;;92.85;52.65;;;8.40;99.90;;;;;;5129281;27;20035;-69
2023/04/09 00:13:20;;;;;;;89.33;51.57;;;8.40;99.90;;;;;;5104639;27;20047;-69
2023/04/09 00:15:46;;;;;;;89.60;49.53;;;8.40;99.90;;;;;;5128050;27;20071;-69
2023/04/09 00:18:13;;;;;;;90.35;48.95;;;8.40;99.90;;;;;;5120385;27;20460;-70
2023/04/09 00:20:38;;;;;;;85.75;48.28;;;8.50;99.90;;;;;;5125018;27;20100;-69
2023/04/09 00:23:04;;;;;;;82.25;47.15;;;8.40;99.90;;;;;;5115797;27;20449;-69
2023/04/09 00:25:30;;;;;;;81.50;45.60;;;8.40;99.90;;;;;;5122821;27;20441;-70
2023/04/09 00:27:56;;;;;;;85.80;44.38;;;8.40;99.90;;;;;;5125522;27;20114;-69
2023/04/09 00:30:22;;;;;;;75.45;42.75;;;8.40;99.90;;;;;;5115885;27;20039;-69
2023/04/09 00:32:48;;;;;;;79.63;44.65;;;8.40;99.90;;;;;;5127651;27;20111;-69
2023/04/09 00:35:15;;;;;;;77.82;45.17;;;8.30;99.90;;;;;;5119196;27;20108;-69
2023/04/09 00:37:40;;;;;;;75.13;43.78;;;8.30;99.90;;;;;;5116513;27;20044;-70
2023/04/09 00:40:06;;;;;;;77.97;44.60;;;8.30;99.90;;;;;;5120037;27;20032;-70
2023/04/09 00:42:33;;;;;;;78.20;45.63;;;8.30;99.90;;;;;;5118841;27;20081;-71
2023/04/09 00:44:59;;;;;;;77.35;44.15;;;8.30;99.90;;;;;;5128358;27;20046;-70
2023/04/09 00:47:27;;;;;;;78.38;44.88;;;8.30;99.90;;;;;;5118620;27;20405;-70
2023/04/09 00:49:53;;;;;;;82.75;44.17;;;8.30;99.90;;;;;;5118239;27;20558;-70
2023/04/09 00:52:19;;;;;;;77.55;44.25;;;8.30;99.90;;;;;;5104539;27;20043;-70
2023/04/09 00:54:44;;;;;;;77.00;43.58;;;8.30;99.90;;;;;;5125526;27;20149;-70
2023/04/09 00:57:11;;;;;;;80.78;43.08;;;8.30;99.90;;;;;;5129890;27;20134;-69
2023/04/09 00:59:37;;;;;;;65.65;37.50;;;8.30;99.90;;;;;;5118300;27;20610;-70
2023/04/09 01:02:03;;;;;;;59.17;35.13;;;8.30;99.90;;;;;;5119469;27;20053;-70
2023/04/09 01:04:29;;;;;;;58.78;35.63;;;8.30;99.90;;;;;;5134596;27;20495;-70
2023/04/09 01:07:01;;;;;;;61.72;35.25;;;8.30;99.90;;;;;;5115767;27;20411;-70
2023/04/09 01:09:35;;;;;;;49.38;30.50;;;8.30;99.90;;;;;;5128336;27;20128;-70
2023/04/09 01:12:30;;;;;;;47.38;28.13;;;8.30;99.90;;;;;;5119776;27;20416;-69
2023/04/09 01:15:09;;;;;;;46.55;28.42;;;8.20;99.90;;;;;;5096464;27;20043;-70
2023/04/09 01:18:04;;;;;;;54.25;27.88;;;8.20;99.90;;;;;;5121560;27;20488;-70
2023/04/09 01:20:33;;;;;;;47.90;29.27;;;8.20;99.90;;;;;;5124823;28;20595;-70
2023/04/09 01:23:51;;;;;;;48.38;28.58;;;8.20;99.90;;;;;;5112116;27;20046;-70
2023/04/09 01:26:51;;;;;;;48.90;29.35;;;8.20;99.90;;;;;;5091872;27;20146;-70
2023/04/09 01:29:18;;;;;;;56.92;31.23;;;8.20;99.90;;;;;;5117247;28;20035;-70
2023/04/09 01:31:45;;;;;;;53.90;31.15;;;8.20;99.90;;;;;;5120700;28;20041;-70
2023/04/09 01:34:12;;;;;;;54.03;31.02;;;8.20;99.90;;;;;;5125827;28;20488;-70
2023/04/09 01:36:39;;;;;;;52.17;31.30;;;8.30;99.90;;;;;;5115520;28;20035;-70
2023/04/09 01:39:06;;;;;;;53.28;30.63;;;8.20;99.90;;;;;;5113683;28;20477;-70
2023/04/09 01:41:34;;;;;;;60.58;33.00;;;8.20;99.90;;;;;;5122077;28;20403;-69
2023/04/09 01:44:02;;;;;;;50.85;30.40;;;8.20;99.90;;;;;;5115340;28;20104;-69
2023/04/09 01:46:28;;;;;;;53.47;28.80;;;8.20;99.90;;;;;;5122220;28;20488;-69
2023/04/09 01:48:55;;;;;;;47.92;28.65;;;8.20;99.90;;;;;;5121953;28;20485;-69
2023/04/09 01:51:21;;;;;;;49.13;30.15;;;8.20;99.90;;;;;;5124024;28;20043;-70
2023/04/09 01:53:47;;;;;;;55.97;31.23;;;8.10;99.90;;;;;;5119363;27;20431;-69
2023/04/09 01:56:13;;;;;;;55.17;28.70;;;8.20;99.90;;;;;;5104407;28;20044;-69
2023/04/09 01:58:39;;;;;;;47.05;27.58;;;8.20;99.90;;;;;;5123687;28;20050;-74
2023/04/09 02:01:13;;;;;;;49.63;28.35;;;8.20;99.90;;;;;;5117256;27;20515;-69
2023/04/09 02:04:01;;;;;;;46.08;26.25;;;8.10;99.90;;;;;;5123282;27;20039;-69
2023/04/09 02:06:27;;;;;;;45.28;26.35;;;8.10;99.90;;;;;;5124606;28;20484;-69
2023/04/09 02:08:54;;;;;;;46.58;26.70;;;8.20;99.90;;;;;;5119608;27;20135;-69
2023/04/09 02:11:22;;;;;;;44.28;26.40;;;8.10;99.90;;;;;;5121575;27;20039;-69
2023/04/09 02:13:51;;;;;;;45.92;27.70;;;8.10;99.90;;;;;;5130281;27;20039;-69
2023/04/09 02:16:17;;;;;;;42.33;25.55;;;8.20;99.90;;;;;;5120355;27;20096;-69
2023/04/09 02:18:42;;;;;;;44.78;25.75;;;8.10;99.90;;;;;;5134448;27;20042;-69
2023/04/09 02:21:10;;;;;;;43.40;25.77;;;8.10;99.90;;;;;;5134616;27;20044;-69
2023/04/09 02:23:35;;;;;;;42.97;25.77;;;8.10;99.90;;;;;;5118257;27;20043;-69
2023/04/09 02:26:01;;;;;;;45.33;25.73;;;8.10;99.90;;;;;;5120922;27;20100;-69
2023/04/09 02:28:27;;;;;;;43.78;26.77;;;8.20;99.90;;;;;;5118327;27;20048;-69
2023/04/09 02:30:52;;;;;;;40.90;25.27;;;8.20;99.90;;;;;;5120398;27;20050;-69
2023/04/09 02:33:18;;;;;;;40.95;25.85;;;8.10;99.90;;;;;;5111203;27;20115;-70
2023/04/09 02:35:43;;;;;;;42.50;25.58;;;8.10;99.90;;;;;;5132273;27;20034;-71
2023/04/09 02:38:13;;;;;;;40.92;25.13;;;8.70;99.90;;;;;;5123861;27;20475;-69
2023/04/09 02:40:42;;;;;;;39.75;23.77;;;8.10;99.90;;;;;;5122960;27;20050;-69
2023/04/09 02:43:08;;;;;;;40.75;24.17;;;8.00;99.90;;;;;;5092760;28;20054;-69
2023/04/09 02:45:34;;;;;;;40.60;23.33;;;8.00;99.90;;;;;;5123805;27;20392;-69
2023/04/09 02:48:00;;;;;;;41.13;22.92;;;8.00;99.90;;;;;;5127396;27;20042;-69
2023/04/09 02:50:26;;;;;;;39.70;23.48;;;8.00;99.90;;;;;;5134016;27;20088;-70
2023/04/09 02:52:52;;;;;;;40.50;23.92;;;8.00;99.90;;;;;;5119575;27;20043;-70
2023/04/09 02:55:19;;;;;;;38.45;23.65;;;8.00;99.90;;;;;;5132527;27;20038;-69
2023/04/09 02:57:44;;;;;;;40.10;25.10;;;8.00;99.90;;;;;;5125986;27;20096;-70
2023/04/09 03:00:11;;;;;;;45.05;25.50;;;8.00;99.90;;;;;;5132922;27;20421;-70
2023/04/09 03:02:36;;;;;;;41.33;25.42;;;8.00;99.90;;;;;;5121454;27;20035;-70
2023/04/09 03:05:02;;;;;;;44.58;26.10;;;8.00;99.90;;;;;;5123675;27;20542;-70
2023/04/09 03:07:28;;;;;;;38.55;24.80;;;8.00;99.90;;;;;;5122580;27;20035;-70
2023/04/09 03:09:53;;;;;;;48.03;26.45;;;7.90;99.90;;;;;;5120951;27;20118;-70
2023/04/09 03:12:19;;;;;;;43.28;25.50;;;7.90;99.90;;;;;;5119188;27;20044;-70
2023/04/09 03:14:45;;;;;;;47.40;27.27;;;7.90;99.90;;;;;;5120690;27;20066;-70
2023/04/09 03:17:10;;;;;;;45.03;26.10;;;7.90;99.90;;;;;;5117781;27;20039;-70
2023/04/09 03:19:36;;;;;;;50.05;28.63;;;7.90;99.90;;;;;;5123501;27;20451;-69
2023/04/09 03:22:01;;;;;;;44.13;25.60;;;7.90;99.90;;;;;;5121289;27;20040;-70
2023/04/09 03:24:27;;;;;;;48.10;28.73;;;7.80;99.90;;;;;;5122117;27;20067;-70
2023/04/09 03:26:52;;;;;;;42.95;26.98;;;7.80;99.90;;;;;;5130092;27;20388;-70
2023/04/09 03:29:18;;;;;;;47.15;26.48;;;7.80;99.90;;;;;;5133851;27;20035;-70
2023/04/09 03:31:44;;;;;;;47.50;27.33;;;7.80;99.90;;;;;;5119809;27;20545;-70
2023/04/09 03:34:09;;;;;;;45.58;27.75;;;7.80;99.90;;;;;;5114481;27;20077;-70
2023/04/09 03:36:35;;;;;;;43.33;26.42;;;7.80;99.90;;;;;;5120148;27;20035;-70
2023/04/09 03:39:00;;;;;;;45.45;27.58;;;7.80;99.90;;;;;;5129825;27;20108;-70
2023/04/09 03:41:26;;;;;;;44.15;26.75;;;7.70;99.90;;;;;;5119963;27;20477;-70
2023/04/09 03:43:52;;;;;;;45.97;27.38;;;7.80;99.90;;;;;;5127433;27;20446;-70
2023/04/09 03:46:18;;;;;;;44.47;26.02;;;7.70;99.90;;;;;;5123358;27;20048;-69
2023/04/09 03:48:44;;;;;;;46.65;27.88;;;7.70;99.90;;;;;;5114365;27;20046;-69
2023/04/09 03:51:14;;;;;;;46.25;27.27;;;7.70;99.90;;;;;;5114210;28;20090;-70
2023/04/09 03:53:40;;;;;;;45.17;27.23;;;7.70;99.90;;;;;;5124778;27;20066;-70
2023/04/09 03:56:07;;;;;;;49.35;27.30;;;7.70;99.90;;;;;;5115644;27;20043;-69
2023/04/09 03:58:32;;;;;;;49.92;27.50;;;7.70;99.90;;;;;;5135130;27;20092;-69
2023/04/09 04:00:58;;;;;;;48.03;27.48;;;7.70;99.90;;;;;;5128768;27;20122;-70
2023/04/09 04:03:24;;;;;;;55.83;28.58;;;7.70;99.90;;;;;;5131668;27;20120;-70
2023/04/09 04:05:49;;;;;;;49.67;27.70;;;7.70;99.90;;;;;;5118619;27;20385;-69
2023/04/09 04:08:15;;;;;;;49.45;27.83;;;7.60;99.90;;;;;;5123293;27;20038;-69
2023/04/09 04:10:40;;;;;;;47.28;27.15;;;7.60;99.90;;;;;;5132269;27;20039;-69
2023/04/09 04:13:07;;;;;;;46.50;27.08;;;7.60;99.90;;;;;;5132874;27;20042;-69
2023/04/09 04:15:33;;;;;;;45.65;27.55;;;7.60;99.90;;;;;;5130863;27;20399;-69
2023/04/09 04:17:59;;;;;;;52.63;28.17;;;7.60;99.90;;;;;;5115605;27;20054;-69
2023/04/09 04:20:25;;;;;;;50.60;27.33;;;7.60;99.90;;;;;;5118594;27;20043;-70
2023/04/09 04:22:50;;;;;;;53.78;28.02;;;7.60;99.90;;;;;;5116424;27;20092;-69
2023/04/09 04:25:16;;;;;;;47.85;27.27;;;7.60;99.90;;;;;;5128918;27;20078;-70
2023/04/09 04:27:42;;;;;;;50.50;27.17;;;7.60;99.90;;;;;;5117087;27;20110;-70
2023/04/09 04:30:08;;;;;;;54.05;28.83;;;7.70;99.90;;;;;;5124913;27;20052;-70
2023/04/09 04:32:34;;;;;;;48.67;28.02;;;7.60;99.90;;;;;;5124207;27;20419;-70
2023/04/09 04:34:59;;;;;;;48.28;28.52;;;7.60;99.90;;;;;;5112925;27;20041;-70
2023/04/09 04:37:25;;;;;;;47.25;28.77;;;7.60;99.90;;;;;;5122045;27;20122;-69
2023/04/09 04:39:51;;;;;;;50.30;28.35;;;7.60;99.90;;;;;;5117451;27;20392;-70
2023/04/09 04:42:16;;;;;;;46.80;27.77;;;7.60;99.90;;;;;;5128139;27;20391;-70
2023/04/09 04:44:43;;;;;;;48.95;28.42;;;7.60;99.90;;;;;;5122037;27;20039;-69
2023/04/09 04:47:09;;;;;;;49.55;27.73;;;7.70;99.90;;;;;;5130411;27;20085;-69
2023/04/09 04:49:34;;;;;;;52.03;27.98;;;7.60;99.90;;;;;;5127093;27;20070;-69
2023/04/09 04:52:00;;;;;;;56.55;29.10;;;7.70;99.90;;;;;;5116573;27;20118;-69
2023/04/09 04:54:25;;;;;;;47.08;29.45;;;7.60;99.90;;;;;;5122015;27;20035;-69
2023/04/09 04:56:51;;;;;;;51.75;29.92;;;7.70;99.90;;;;;;5123962;27;20051;-70
2023/04/09 04:59:17;;;;;;;53.58;29.00;;;7.70;99.90;;;;;;5110512;27;20378;-69
2023/04/09 05:01:42;;;;;;;54.47;29.92;;;7.70;99.90;;;;;;5121685;27;20071;-69
2023/04/09 05:04:08;;;;;;;51.50;29.17;;;7.70;99.90;;;;;;5117463;27;20049;-69
2023/04/09 05:06:33;;;;;;;49.53;30.30;;;7.70;99.90;;;;;;5120380;27;20043;-69
2023/04/09 05:09:00;;;;;;;48.90;28.88;;;7.70;99.90;;;;;;5133705;27;20384;-69
2023/04/09 05:11:29;;;;;;;51.42;30.33;;;7.70;99.90;;;;;;5125412;27;20495;-69
2023/04/09 05:13:55;;;;;;;49.63;30.25;;;7.70;99.90;;;;;;5123989;27;20042;-70
2023/04/09 05:16:21;;;;;;;50.15;31.05;;;7.70;99.90;;;;;;5128053;27;20097;-70
2023/04/09 05:18:46;;;;;;;51.92;30.98;;;7.70;99.90;;;;;;5123495;27;20427;-69
2023/04/09 05:21:12;;;;;;;57.75;30.35;;;7.70;99.90;;;;;;5129223;27;20046;-69
2023/04/09 05:23:38;;;;;;;50.22;30.48;;;7.70;99.90;;;;;;5120155;27;20036;-69
2023/04/09 05:26:04;;;;;;;58.10;31.70;;;7.70;99.90;;;;;;5129458;27;20039;-70
2023/04/09 05:28:30;;;;;;;48.58;29.75;;;7.70;99.90;;;;;;5125819;28;20035;-69
2023/04/09 05:30:55;;;;;;;49.38;30.45;;;7.80;99.90;;;;;;5125663;28;20039;-70
2023/04/09 05:33:21;;;;;;;52.35;30.55;;;7.80;99.90;;;;;;5121776;27;20051;-69
2023/04/09 05:35:46;;;;;;;51.33;31.45;;;7.80;99.90;;;;;;5109817;28;20036;-69
2023/04/09 05:38:12;;;;;;;51.20;31.23;;;7.80;99.90;;;;;;5122982;28;20404;-70
2023/04/09 05:40:38;;;;;;;53.42;30.65;;;7.80;99.90;;;;;;5121202;28;20051;-70
2023/04/09 05:43:04;;;;;;;62.13;32.08;;;7.90;99.90;;;;;;5141101;27;20039;-69
2023/04/09 05:45:30;;;;;;;56.40;32.10;;;7.90;99.90;;;;;;5122468;27;20062;-69
2023/04/09 05:47:56;;;;;;;57.10;32.78;;;7.90;99.90;;;;;;5134461;27;20035;-70
2023/04/09 05:50:22;;;;;;;62.10;33.85;;;7.90;99.90;;;;;;5119131;27;20039;-70
2023/04/09 05:52:47;;;;;;;55.97;33.28;;;7.90;99.90;;;;;;5135715;27;20395;-69
2023/04/09 05:55:13;;;;;;;54.25;33.60;;;7.90;99.90;;;;;;5125225;27;20027;-70
2023/04/09 05:57:39;;;;;;;57.60;32.53;;;7.90;99.90;;;;;;5121056;27;20664;-69
2023/04/09 06:00:07;;;;;;;58.05;33.25;;;7.90;99.90;;;;;;5114668;27;20042;-69
2023/04/09 06:02:32;;;;;;;53.27;31.40;;;7.90;99.90;;;;;;5124128;27;20039;-69
2023/04/09 06:04:58;;;;;;;45.05;28.02;;;7.90;99.90;;;;;;5129727;27;20046;-69
2023/04/09 06:07:24;;;;;;;43.85;25.67;;;7.90;99.90;;;;;;5124151;27;20049;-69
2023/04/09 06:09:49;;;;;;;42.92;25.73;;;7.90;99.90;;;;;;5131759;27;20083;-69
2023/04/09 06:12:16;;;;;;;42.17;25.05;;;8.00;99.90;;;;;;5129234;27;20096;-69
2023/04/09 06:14:41;;;;;;;42.03;25.77;;;8.00;99.90;;;;;;5105243;27;20547;-70
2023/04/09 06:17:07;;;;;;;45.13;26.40;;;8.00;99.90;;;;;;5118906;27;20122;-69
2023/04/09 06:19:33;;;;;;;38.42;24.35;;;8.00;99.90;;;;;;5126094;27;20042;-69
2023/04/09 06:21:58;;;;;;;38.55;23.27;;;8.00;99.90;;;;;;5127058;27;20105;-70
2023/04/09 06:24:24;;;;;;;37.58;22.85;;;7.90;99.90;;;;;;5126129;27;20380;-70
2023/04/09 06:26:49;;;;;;;37.90;23.88;;;8.00;99.90;;;;;;5103572;27;20035;-70
2023/04/09 06:29:15;;;;;;;40.40;25.48;;;8.00;99.90;;;;;;5122981;27;20031;-70
2023/04/09 06:31:41;;;;;;;39.25;23.73;;;8.00;99.90;;;;;;5120527;27;20035;-70
2023/04/09 06:34:06;;;;;;;39.22;24.52;;;8.00;99.90;;;;;;5122494;27;20032;-69
2023/04/09 06:36:33;;;;;;;37.03;23.77;;;8.00;99.90;;;;;;5121986;27;20057;-70
2023/04/09 06:38:59;;;;;;;38.92;25.38;;;8.00;99.90;;;;;;5120990;27;20589;-71
2023/04/09 06:41:28;;;;;;;37.28;23.90;;;8.10;99.90;;;;;;5104916;27;20158;-69
2023/04/09 06:43:53;;;;;;;39.42;24.38;;;8.00;99.90;;;;;;5131899;27;20520;-70
2023/04/09 06:46:20;;;;;;;39.60;24.35;;;8.00;99.90;;;;;;5122619;27;20089;-69
2023/04/09 06:48:46;;;;;;;46.10;26.33;;;8.10;99.90;;;;;;5122711;27;20119;-70
2023/04/09 06:51:11;;;;;;;40.42;25.52;;;8.10;99.90;;;;;;5116949;27;20118;-69
2023/04/09 06:53:38;;;;;;;44.75;28.13;;;8.10;99.90;;;;;;5114697;27;20043;-70
2023/04/09 06:56:04;;;;;;;46.63;27.02;;;8.10;99.90;;;;;;5116229;27;20308;-70
2023/04/09 06:58:29;;;;;;;47.17;26.35;;;8.10;99.90;;;;;;5118400;27;20051;-70
2023/04/09 07:00:55;;;;;;;41.33;26.25;;;8.10;99.90;;;;;;5119315;27;20036;-71
2023/04/09 07:03:21;;;;;;;47.50;27.60;;;8.10;99.90;;;;;;5115878;27;20044;-70
2023/04/09 07:05:47;;;;;;;42.15;25.38;;;8.10;99.90;;;;;;5128996;27;20035;-70
2023/04/09 07:08:13;;;;;;;41.67;26.23;;;8.20;99.90;;;;;;5121082;27;20042;-70
2023/04/09 07:10:39;;;;;;;42.00;25.33;;;8.20;99.90;;;;;;5123567;27;20079;-70
2023/04/09 07:13:05;;;;;;;42.28;25.02;;;8.30;99.90;;;;;;5119723;27;20035;-70
2023/04/09 07:15:31;;;;;;;42.15;25.13;;;8.30;99.90;;;;;;5124894;27;20083;-70
2023/04/09 07:17:56;;;;;;;42.78;26.27;;;8.40;99.90;;;;;;5116005;27;20063;-70
2023/04/09 07:20:22;;;;;;;42.28;25.50;;;8.40;99.90;;;;;;5109562;27;20054;-70
2023/04/09 07:22:48;;;;;;;45.42;27.58;;;8.40;99.90;;;;;;5124016;27;20091;-70
2023/04/09 07:25:14;;;;;;;43.97;25.95;;;8.50;99.90;;;;;;5121612;27;20441;-70
2023/04/09 07:27:41;;;;;;;44.28;27.20;;;8.50;99.90;;;;;;5121228;27;20073;-70
2023/04/09 07:30:09;;;;;;;43.28;26.48;;;8.50;99.90;;;;;;5102800;27;20050;-71
2023/04/09 07:32:35;;;;;;;42.88;26.33;;;8.50;99.90;;;;;;5122104;27;20039;-70
2023/04/09 07:35:04;;;;;;;41.50;26.95;;;8.50;99.90;;;;;;5122323;27;20508;-70
2023/04/09 07:37:29;;;;;;;;;;;8.40;99.90;;;;;;5130719;27;20046;-70
2023/04/09 07:39:55;;;;;;;45.63;27.98;;;8.50;99.90;;;;;;5122109;27;20376;-70
2023/04/09 07:42:21;;;;;;;48.10;29.08;;;8.50;99.90;;;;;;5127241;27;20051;-70
2023/04/09 07:44:47;;;;;;;42.88;27.13;;;8.70;99.90;;;;;;5124551;27;20049;-70
2023/04/09 07:47:12;;;;;;;40.67;25.85;;;8.80;99.90;;;;;;5119819;27;20281;-70
2023/04/09 07:49:38;;;;;;;44.80;25.67;;;9.00;99.90;;;;;;5129994;27;20248;-69
2023/04/09 07:52:05;;;;;;;42.55;26.52;;;9.30;99.90;;;;;;5125592;27;20071;-70
2023/04/09 07:54:31;;;;;;;44.38;25.45;;;9.20;99.90;;;;;;5123227;27;20465;-71
2023/04/09 07:56:57;;;;;;;44.80;26.95;;;9.30;99.90;;;;;;5120189;27;20470;-71
2023/04/09 07:59:23;;;;;;;44.22;26.13;;;9.30;99.90;;;;;;5117890;27;20078;-71
2023/04/09 08:01:49;;;;;;;46.08;26.30;;;9.40;99.90;;;;;;5108838;27;20477;-71
2023/04/09 08:04:15;;;;;;;43.05;25.58;;;9.40;99.90;;;;;;5124538;27;20046;-72
2023/04/09 08:06:40;;;;;;;43.42;26.92;;;9.40;99.90;;;;;;5124148;27;20054;-72
2023/04/09 08:09:06;;;;;;;41.90;25.98;;;9.60;99.90;;;;;;5126389;27;20035;-71
2023/04/09 08:11:32;;;;;;;46.67;25.75;;;9.50;99.90;;;;;;5097297;27;20036;-71
2023/04/09 08:14:00;;;;;;;45.35;25.38;;;9.70;99.90;;;;;;5116968;27;20543;-71
2023/04/09 08:16:26;;;;;;;38.03;24.08;;;9.50;99.90;;;;;;5120402;27;20488;-70
2023/04/09 08:18:52;;;;;;;43.15;26.23;;;9.60;99.90;;;;;;5129566;27;20042;-71
2023/04/09 08:21:18;;;;;;;43.30;25.83;;;9.70;99.90;;;;;;5127318;27;20039;-70
2023/04/09 08:23:44;;;;;;;39.17;24.48;;;9.70;99.90;;;;;;5117649;27;20085;-70
2023/04/09 08:26:09;;;;;;;45.05;25.85;;;9.70;99.90;;;;;;5115602;27;20416;-70
2023/04/09 08:28:35;;;;;;;45.90;25.42;;;9.70;99.90;;;;;;5121549;27;20476;-70
2023/04/09 08:31:00;;;;;;;44.35;25.73;;;9.70;99.90;;;;;;5119620;27;20047;-71
2023/04/09 08:33:26;;;;;;;39.45;25.63;;;9.70;99.90;;;;;;5118762;27;20392;-70
2023/04/09 08:35:52;;;;;;;39.10;24.90;;;10.30;99.90;;;;;;5112641;27;20035;-72
2023/04/09 08:38:20;;;;;;;38.83;24.60;;;10.30;99.90;;;;;;5119386;27;20047;-70
2023/04/09 08:40:46;;;;;;;38.22;24.30;;;9.70;99.90;;;;;;5103325;28;20122;-71
2023/04/09 08:43:17;;;;;;;41.72;25.67;;;9.80;99.90;;;;;;5105523;27;20126;-71
2023/04/09 08:45:43;;;;;;;39.20;24.02;;;9.80;99.90;;;;;;5111398;27;20054;-70
2023/04/09 08:48:11;;;;;;;37.53;23.73;;;9.80;99.90;;;;;;5124313;27;20039;-70
2023/04/09 08:50:37;;;;;;;;;;;9.80;99.90;;;;;;5129735;27;20462;-70
2023/04/09 08:53:04;;;;;;;37.47;22.40;;;9.80;99.90;;;;;;5119918;27;19970;-70
2023/04/09 08:55:33;;;;;;;36.20;22.50;;;10.00;99.90;;;;;;5108618;27;20587;-71
2023/04/09 08:57:59;;;;;;;34.53;22.27;;;10.10;99.90;;;;;;5121577;27;20407;-69
2023/04/09 09:00:26;;;;;;;38.13;23.02;;;10.10;99.90;;;;;;5122894;27;20134;-70
2023/04/09 09:03:05;;;;;;;34.95;22.38;;;10.20;99.90;;;;;;5123732;27;20118;-71
2023/04/09 09:05:45;;;;;;;33.53;21.60;;;10.20;99.90;;;;;;5116367;27;20400;-70
2023/04/09 09:08:21;;;;;;;35.88;21.58;;;10.30;99.90;;;;;;5114170;27;20054;-71
2023/04/09 09:10:47;;;;;;;32.83;21.67;;;10.50;99.90;;;;;;5123064;27;20035;-71
2023/04/09 09:13:15;;;;;;;35.88;22.00;;;10.60;99.90;;;;;;5120477;27;20036;-71
2023/04/09 09:15:41;;;;;;;34.58;21.58;;;10.60;99.90;;;;;;5120016;27;20043;-70
2023/04/09 09:18:07;;;;;;;35.20;21.80;;;10.60;99.90;;;;;;5116194;27;20036;-70
2023/04/09 09:20:32;;;;;;;34.30;21.90;;;10.60;99.90;;;;;;5121637;27;20035;-70
2023/04/09 09:22:59;;;;;;;34.92;22.35;;;10.60;99.90;;;;;;5122936;27;20050;-71
2023/04/09 09:25:24;;;;;;;33.75;22.65;;;10.60;99.90;;;;;;5125449;28;20047;-71
2023/04/09 09:27:51;;;;;;;34.60;22.52;;;10.70;99.90;;;;;;5099091;28;20087;-70
2023/04/09 09:30:22;;;;;;;32.85;22.27;;;10.70;99.90;;;;;;5117812;27;20047;-70
2023/04/09 09:33:08;;;;;;;34.70;22.83;;;10.70;99.90;;;;;;5118499;27;20042;-70
2023/04/09 09:35:53;;;;;;;36.72;22.13;;;10.80;99.90;;;;;;5119183;27;20051;-70
2023/04/09 09:38:19;;;;;;;39.50;24.42;;;10.80;99.90;;;;;;5117437;28;20046;-70
2023/04/09 09:40:46;;;;;;;37.05;22.13;;;10.80;99.90;;;;;;5127469;28;20380;-70
2023/04/09 09:43:12;;;;;;;36.53;22.63;;;10.70;99.90;;;;;;5114358;27;20058;-69
2023/04/09 09:45:39;;;;;;;36.83;23.58;;;10.70;99.90;;;;;;5122320;27;20047;-70
2023/04/09 09:48:05;;;;;;;38.47;23.50;;;10.90;99.90;;;;;;5107565;28;20038;-70
2023/04/09 09:50:34;;;;;;;31.80;21.77;;;10.90;99.90;;;;;;5113808;28;20247;-70
2023/04/09 09:53:06;;;;;;;35.42;21.92;;;11.00;99.90;;;;;;5127294;28;20040;-70
2023/04/09 09:55:35;;;;;;;33.22;21.52;;;11.10;99.90;;;;;;5098809;28;20054;-70
2023/04/09 09:58:02;;;;;;;38.72;23.85;;;11.20;99.90;;;;;;5116219;27;20491;-70
2023/04/09 10:00:31;;;;;;;36.80;23.63;;;11.30;99.90;;;;;;5104447;28;20055;-70
2023/04/09 10:03:05;;;;;;;33.38;22.80;;;11.40;99.90;;;;;;5101442;28;20046;-70
2023/04/09 10:05:31;;;;;;;34.78;23.10;;;11.60;99.90;;;;;;5130381;28;20365;-70
2023/04/09 10:07:59;;;;;;;36.00;23.73;;;11.80;99.90;;;;;;5118483;27;20038;-70
2023/04/09 10:10:26;;;;;;;37.83;22.80;;;12.10;99.90;;;;;;5116723;27;20452;-69
2023/04/09 10:12:52;;;;;;;32.45;21.67;;;12.20;99.90;;;;;;5119453;27;20050;-71
2023/04/09 10:15:18;;;;;;;31.80;21.30;;;12.40;99.90;;;;;;5101108;28;20039;-68
2023/04/09 10:17:45;;;;;;;34.83;23.90;;;12.60;99.90;;;;;;5121851;27;20124;-69
2023/04/09 10:20:17;;;;;;;30.75;21.15;;;12.90;99.90;;;;;;5119019;27;20043;-70
2023/04/09 10:22:48;;;;;;;28.85;21.08;;;13.50;99.90;;;;;;5108534;27;20031;-69
2023/04/09 10:25:15;;;;;;;31.35;20.33;;;14.00;99.90;;;;;;5096699;28;20054;-70
2023/04/09 10:27:44;;;;;;;31.05;20.67;;;14.50;99.90;;;;;;5116330;27;20036;-69
2023/04/09 10:30:33;;;;;;;28.65;20.27;;;14.60;99.90;;;;;;5122878;27;20045;-71
2023/04/09 10:33:13;;;;;;;32.47;21.17;;;14.60;99.90;;;;;;5123615;27;20054;-70
2023/04/09 10:35:38;;;;;;;31.20;21.88;;;14.70;99.90;;;;;;5086567;28;20063;-69
2023/04/09 10:38:08;;;;;;;31.65;20.85;;;14.80;99.90;;;;;;5122358;27;20492;-69
2023/04/09 10:40:39;;;;;;;31.23;21.73;;;14.90;99.90;;;;;;5116942;27;20055;-69
2023/04/09 10:43:06;;;;;;;30.30;21.60;;;15.00;99.90;;;;;;5117459;27;20503;-69
2023/04/09 10:45:40;;;;;;;31.80;22.10;;;14.80;99.90;;;;;;5124851;27;20219;-69
2023/04/09 10:48:13;;;;;;;32.40;21.75;;;14.80;99.90;;;;;;5117415;27;20047;-69
2023/04/09 10:50:42;;;;;;;37.40;21.65;;;14.70;99.90;;;;;;5110719;27;20123;-69
2023/04/09 10:53:22;;;;;;;30.70;21.88;;;14.70;99.90;;;;;;5110602;27;20508;-69
2023/04/09 10:55:49;;;;;;;32.28;22.35;;;14.70;99.90;;;;;;5107207;27;20055;-69
2023/04/09 10:58:15;;;;;;;31.73;21.83;;;14.60;99.90;;;;;;5094495;28;21716;-70
2023/04/09 11:00:43;;;;;;;29.60;20.77;;;14.60;99.90;;;;;;5092875;28;20028;-69
2023/04/09 11:03:21;;;;;;;29.55;21.65;;;14.70;99.90;;;;;;5095501;28;20040;-69
2023/04/09 11:05:56;;;;;;;31.05;21.52;;;15.20;99.90;;;;;;5096332;28;20039;-69
2023/04/09 11:08:22;;;;;;;29.33;21.08;;;15.50;99.90;;;;;;5098827;28;20077;-70
2023/04/09 11:10:48;;;;;;;27.45;20.20;;;15.20;99.90;;;;;;5098953;28;20071;-69
2023/04/09 11:13:16;;;;;;;27.85;19.90;;;15.40;99.90;;;;;;5098557;28;20086;-70
2023/04/09 11:15:42;;;;;;;29.63;20.55;;;15.50;99.90;;;;;;5096793;28;20093;-69
2023/04/09 11:18:12;;;;;;;30.92;21.42;;;15.90;99.90;;;;;;5100270;28;20123;-70
2023/04/09 11:20:39;;;;;;;29.23;19.52;;;15.90;99.90;;;;;;5096271;28;20126;-69
2023/04/09 11:23:05;;;;;;;29.80;19.80;;;16.60;99.90;;;;;;5094215;28;20043;-70
2023/04/09 11:25:32;;;;;;;25.13;18.80;;;16.70;99.90;;;;;;5098758;27;20479;-70
2023/04/09 11:27:58;;;;;;;24.98;17.92;;;16.80;99.90;;;;;;5099614;28;20496;-70
2023/04/09 11:30:25;;;;;;;27.17;20.17;;;16.60;99.90;;;;;;5097290;27;20039;-70
2023/04/09 11:32:50;;;;;;;30.10;20.85;;;16.30;99.90;;;;;;5100490;28;20468;-70
2023/04/09 11:35:18;;;;;;;28.35;20.85;;;16.10;99.90;;;;;;5099597;28;20048;-69
2023/04/09 11:37:45;;;;;;;26.35;19.92;;;15.80;99.90;;;;;;5099432;28;20054;-69
2023/04/09 11:40:18;;;;;;;28.30;20.25;;;15.60;99.90;;;;;;5095802;28;20044;-69
2023/04/09 11:42:44;;;;;;;27.77;20.02;;;15.60;99.90;;;;;;5104265;28;20542;-69
2023/04/09 11:45:11;;;;;;;27.15;19.38;;;16.10;99.90;;;;;;5095279;28;20043;-69
2023/04/09 11:47:42;;;;;;;23.43;18.50;;;16.60;99.90;;;;;;5098540;28;20048;-69
2023/04/09 11:50:09;;;;;;;25.83;18.17;;;17.10;99.90;;;;;;5096555;28;20487;-69
2023/04/09 11:52:35;;;;;;;22.50;16.80;;;17.80;99.90;;;;;;5093776;27;20044;-69
2023/04/09 11:55:05;;;;;;;23.35;17.17;;;18.10;99.90;;;;;;5074054;28;20054;-68
2023/04/09 11:57:40;;;;;;;25.63;17.58;;;18.40;99.90;;;;;;5082740;27;20055;-69
2023/04/09 12:00:11;;;;;;;22.42;17.42;;;18.60;98.90;;;;;;5117960;27;20048;-69
2023/04/09 12:02:50;;;;;;;23.20;17.95;;;18.70;97.20;;;;;;5124759;27;20036;-69
2023/04/09 12:05:28;;;;;;;23.42;18.23;;;18.70;98.00;;;;;;5123699;27;20095;-68
2023/04/09 12:08:02;;;;;;;23.42;17.23;;;18.30;98.60;;;;;;5113876;27;20039;-69
2023/04/09 12:10:29;;;;;;;26.08;18.05;;;18.70;98.80;;;;;;5116194;27;20039;-69
2023/04/09 12:13:00;;;;;;;;;;;19.20;98.80;;;;;;5119090;27;20043;-69
2023/04/09 12:15:29;;;;;;;20.15;15.63;;;20.00;96.80;;;;;;5108645;27;19934;-69
2023/04/09 12:17:56;;;;;;;21.48;17.25;;;19.60;96.00;;;;;;5128869;27;20043;-69
2023/04/09 12:20:34;;;;;;;18.67;14.93;;;19.20;94.90;;;;;;5126433;27;20036;-69
2023/04/09 12:23:01;;;;;;;18.50;14.07;;;19.20;94.00;;;;;;5110793;27;20055;-69
2023/04/09 12:25:27;;;;;;;19.95;16.88;;;19.00;95.10;;;;;;5116746;27;20031;-69
2023/04/09 12:27:55;;;;;;;21.80;14.60;;;19.20;95.20;;;;;;5119263;27;20032;-69
2023/04/09 12:30:21;;;;;;;18.52;15.07;;;19.50;94.90;;;;;;5120583;27;20499;-69
2023/04/09 12:32:46;;;;;;;20.13;16.10;;;19.40;94.20;;;;;;5121251;27;20042;-69
2023/04/09 12:35:13;;;;;;;18.88;15.07;;;19.40;94.20;;;;;;5116686;27;20035;-70
2023/04/09 12:37:39;;;;;;;18.83;14.80;;;19.40;94.00;;;;;;5115711;27;20050;-70